createdAt,value
2019-01-25T00:00:38.978Z,11.50
2019-01-25T00:03:42.671Z,11.50
2019-01-25T00:06:47.166Z,11.73
2019-01-25T00:09:58.489Z,12.10
2019-01-25T00:12:57.060Z,11.25
2019-01-25T00:16:01.632Z,11.97
2019-01-25T00:19:05.330Z,12.37
2019-01-25T00:22:08.779Z,11.83
2019-01-25T00:25:12.260Z,12.63
2019-01-25T00:28:15.742Z,11.57
2019-01-25T00:31:19.202Z,11.60
2019-01-25T00:34:22.662Z,12.10
2019-01-25T00:37:26.242Z,12.00
2019-01-25T00:40:29.763Z,11.60
2019-01-25T00:43:33.257Z,11.37
2019-01-25T00:46:36.745Z,11.40
2019-01-25T00:49:40.477Z,10.90
2019-01-25T00:52:43.953Z,11.37
2019-01-25T00:55:47.565Z,11.83
2019-01-25T00:58:51.227Z,11.80
2019-01-25T01:01:54.879Z,11.00
2019-01-25T01:04:58.388Z,11.37
2019-01-25T01:08:03.080Z,12.17
2019-01-25T01:11:06.615Z,11.40
2019-01-25T01:14:10.113Z,11.43
2019-01-25T01:17:13.574Z,12.27
2019-01-25T01:20:17.952Z,11.27
2019-01-25T01:23:21.455Z,12.00
2019-01-25T01:26:24.939Z,11.83
2019-01-25T01:29:28.428Z,11.83
2019-01-25T01:32:31.926Z,11.83
2019-01-25T01:35:35.441Z,11.40
2019-01-25T01:38:38.945Z,10.70
2019-01-25T01:41:42.442Z,11.23
2019-01-25T01:44:45.948Z,11.43
2019-01-25T01:47:49.428Z,12.77
2019-01-25T01:50:52.936Z,11.60
2019-01-25T01:53:57.454Z,12.20
2019-01-25T01:57:00.952Z,11.20
2019-01-25T02:00:06.912Z,11.43
2019-01-25T02:03:10.428Z,11.97
2019-01-25T02:06:13.932Z,12.77
2019-01-25T02:09:17.404Z,12.17
2019-01-25T02:12:20.933Z,12.37
2019-01-25T02:15:24.924Z,11.40
2019-01-25T02:18:28.532Z,11.70
2019-01-25T02:21:32.114Z,11.50
2019-01-25T02:24:36.757Z,11.93
2019-01-25T02:27:40.288Z,11.80
2019-01-25T02:30:45.853Z,11.20
2019-01-25T02:33:49.299Z,11.77
2019-01-25T02:36:52.815Z,11.53
2019-01-25T02:39:56.410Z,12.43
2019-01-25T02:43:00.029Z,12.37
2019-01-25T02:46:03.543Z,11.67
2019-01-25T02:49:07.031Z,11.57
2019-01-25T02:52:10.540Z,11.83
2019-01-25T02:55:14.197Z,11.87
2019-01-25T02:58:18.747Z,11.50
2019-01-25T03:01:22.283Z,11.60
2019-01-25T03:04:25.757Z,11.50
2019-01-25T03:07:29.255Z,12.03
2019-01-25T03:10:32.772Z,12.13
2019-01-25T03:13:36.256Z,11.50
2019-01-25T03:16:40.796Z,11.93
2019-01-25T03:19:44.280Z,11.37
2019-01-25T03:22:48.831Z,12.60
2019-01-25T03:25:52.313Z,10.73
2019-01-25T03:28:55.812Z,11.17
2019-01-25T03:32:00.355Z,12.47
2019-01-25T03:35:04.354Z,11.80
2019-01-25T03:38:07.953Z,11.70
2019-01-25T03:41:12.472Z,11.97
2019-01-25T03:44:17.007Z,11.73
2019-01-25T03:47:21.516Z,11.53
2019-01-25T03:50:26.868Z,12.97
2019-01-25T03:53:31.397Z,12.77
2019-01-25T03:56:34.894Z,12.70
2019-01-25T03:59:39.463Z,11.60
2019-01-25T04:02:43.126Z,11.67
2019-01-25T04:05:46.574Z,11.87
2019-01-25T04:08:50.131Z,10.43
2019-01-25T04:11:54.673Z,12.17
2019-01-25T04:14:58.139Z,11.87
2019-01-25T04:18:01.657Z,12.13
2019-01-25T04:21:11.929Z,12.47
2019-01-25T04:24:15.409Z,10.80
2019-01-25T04:27:20.959Z,12.07
2019-01-25T04:30:26.400Z,12.50
2019-01-25T04:33:30.037Z,11.57
2019-01-25T04:36:33.494Z,12.33
2019-01-25T04:39:37.015Z,11.80
2019-01-25T04:42:40.508Z,12.17
2019-01-25T04:45:44.009Z,12.57
2019-01-25T04:48:47.537Z,12.77
2019-01-25T04:51:51.025Z,11.67
2019-01-25T04:54:54.513Z,11.63
2019-01-25T04:58:10.508Z,11.90
2019-01-25T05:01:14.126Z,12.43
2019-01-25T05:04:17.643Z,13.60
2019-01-25T05:07:21.225Z,12.57
2019-01-25T05:10:24.735Z,12.23
2019-01-25T05:13:28.245Z,12.43
2019-01-25T05:16:31.740Z,11.90
2019-01-25T05:19:40.021Z,11.60
2019-01-25T05:22:44.677Z,12.40
2019-01-25T05:25:48.199Z,11.20
2019-01-25T05:28:51.670Z,12.87
2019-01-25T05:31:55.165Z,12.70
2019-01-25T05:34:58.655Z,12.27
2019-01-25T05:38:02.181Z,11.80
2019-01-25T05:41:05.674Z,12.30
2019-01-25T05:44:09.229Z,12.87
2019-01-25T05:47:13.687Z,12.40
2019-01-25T05:50:17.235Z,12.70
2019-01-25T05:53:20.901Z,13.20
2019-01-25T05:56:24.395Z,12.73
2019-01-25T05:59:27.894Z,12.20
2019-01-25T06:02:31.446Z,11.87
2019-01-25T06:05:34.909Z,14.17
2019-01-25T06:08:43.859Z,12.00
2019-01-25T06:11:43.731Z,12.53
2019-01-25T06:14:47.261Z,12.60
2019-01-25T06:17:50.766Z,12.80
2019-01-25T06:20:57.504Z,12.57
2019-01-25T06:24:03.060Z,13.83
2019-01-25T06:27:06.583Z,12.03
2019-01-25T06:30:12.905Z,12.20
2019-01-25T06:33:16.443Z,13.33
2019-01-25T06:36:19.947Z,12.50
2019-01-25T06:39:25.484Z,13.60
2019-01-25T06:42:28.986Z,12.43
2019-01-25T06:45:32.492Z,12.90
2019-01-25T06:48:36.006Z,12.93
2019-01-25T06:51:41.537Z,12.03
2019-01-25T06:54:45.047Z,12.70
2019-01-25T06:57:55.363Z,11.90
2019-01-25T07:01:04.395Z,13.23
2019-01-25T07:04:08.864Z,13.43
2019-01-25T07:07:29.316Z,13.63
2019-01-25T07:10:32.866Z,13.47
2019-01-25T07:13:37.388Z,13.07
2019-01-25T07:16:40.883Z,13.00
2019-01-25T07:19:44.382Z,12.87
2019-01-25T07:22:48.902Z,12.10
2019-01-25T07:25:52.452Z,13.43
2019-01-25T07:28:56.939Z,13.40
2019-01-25T07:32:00.474Z,13.27
2019-01-25T07:35:04.980Z,12.30
2019-01-25T07:38:08.437Z,13.00
2019-01-25T07:41:13.072Z,12.97
2019-01-25T07:44:16.698Z,13.50
2019-01-25T07:47:20.293Z,14.77
2019-01-25T07:50:23.901Z,15.03
2019-01-25T07:53:27.413Z,14.77
2019-01-25T07:56:30.959Z,13.43
2019-01-25T07:59:34.398Z,15.60
2019-01-25T08:02:37.898Z,13.40
2019-01-25T08:05:41.505Z,16.30
2019-01-25T08:08:45.108Z,13.97
2019-01-25T08:11:48.620Z,14.10
2019-01-25T08:14:52.161Z,13.90
2019-01-25T08:17:55.639Z,13.97
2019-01-25T08:20:59.128Z,13.53
2019-01-25T08:24:02.622Z,13.13
2019-01-25T08:27:06.213Z,14.40
2019-01-25T08:30:12.080Z,14.33
2019-01-25T08:33:16.763Z,15.00
2019-01-25T08:36:20.300Z,13.53
2019-01-25T08:39:23.815Z,14.93
2019-01-25T08:42:27.312Z,13.70
2019-01-25T08:45:30.818Z,16.40
2019-01-25T08:48:34.317Z,13.77
2019-01-25T08:51:38.126Z,14.43
2019-01-25T08:54:41.909Z,14.67
2019-01-25T08:57:45.408Z,17.10
2019-01-25T09:00:49.925Z,13.70
2019-01-25T09:03:53.449Z,14.20
2019-01-25T09:06:56.935Z,13.57
2019-01-25T09:10:00.450Z,14.37
2019-01-25T09:13:03.950Z,14.10
2019-01-25T09:16:07.455Z,13.27
2019-01-25T09:19:11.958Z,16.35
2019-01-25T09:22:15.561Z,14.00
2019-01-25T09:25:19.191Z,14.80
2019-01-25T09:28:23.808Z,12.70
2019-01-25T09:31:27.525Z,13.30
2019-01-25T09:34:31.118Z,13.47
2019-01-25T09:37:34.652Z,13.20
2019-01-25T09:40:38.131Z,13.18
2019-01-25T09:43:41.725Z,12.18
2019-01-25T09:46:45.412Z,13.80
2019-01-25T09:49:49.241Z,13.27
2019-01-25T09:52:53.213Z,13.17
2019-01-25T09:55:58.188Z,13.37
2019-01-25T09:59:01.930Z,13.70
2019-01-25T10:02:06.609Z,12.78
2019-01-25T10:05:10.285Z,13.70
2019-01-25T10:08:13.966Z,12.13
2019-01-25T10:11:17.446Z,12.85
2019-01-25T10:14:21.678Z,12.73
2019-01-25T10:17:25.281Z,13.17
2019-01-25T10:20:28.840Z,15.10
2019-01-25T10:23:32.480Z,14.50
2019-01-25T10:26:37.079Z,14.20
2019-01-25T10:29:42.652Z,14.05
2019-01-25T10:32:46.230Z,12.60
2019-01-25T10:35:50.905Z,12.60
2019-01-25T10:38:54.453Z,12.45
2019-01-25T10:42:00.032Z,12.25
2019-01-25T10:45:04.682Z,12.98
2019-01-25T10:48:08.939Z,12.90
2019-01-25T10:51:12.576Z,12.23
2019-01-25T10:54:16.080Z,12.67
2019-01-25T10:57:19.548Z,12.50
2019-01-25T11:00:23.366Z,14.70
2019-01-25T11:03:26.998Z,12.57
2019-01-25T11:06:31.678Z,12.43
2019-01-25T11:09:38.023Z,13.03
2019-01-25T11:12:43.143Z,12.95
2019-01-25T11:15:46.722Z,12.23
2019-01-25T11:18:50.316Z,12.58
2019-01-25T11:21:53.925Z,12.77
2019-01-25T11:24:57.424Z,12.60
2019-01-25T11:28:00.925Z,11.25
2019-01-25T11:31:04.454Z,12.30
2019-01-25T11:34:08.935Z,12.53
2019-01-25T11:37:12.473Z,11.73
2019-01-25T11:40:21.803Z,11.65
2019-01-25T11:43:25.391Z,12.68
2019-01-25T11:46:28.898Z,12.30
2019-01-25T11:49:32.390Z,12.30
2019-01-25T11:52:37.932Z,12.05
2019-01-25T11:55:41.464Z,12.13
2019-01-25T11:58:45.986Z,12.28
2019-01-25T12:01:49.493Z,12.20
2019-01-25T12:04:52.981Z,11.95
2019-01-25T12:07:56.472Z,12.20
2019-01-25T12:11:00.076Z,11.95
2019-01-25T12:14:03.658Z,11.43
2019-01-25T12:17:07.187Z,11.45
2019-01-25T12:20:14.059Z,11.73
2019-01-25T12:23:17.757Z,11.70
2019-01-25T12:26:21.371Z,11.00
2019-01-25T12:29:24.920Z,12.58
2019-01-25T12:32:28.655Z,12.05
2019-01-25T12:35:34.769Z,12.33
2019-01-25T12:38:38.231Z,13.43
2019-01-25T12:41:41.802Z,11.60
2019-01-25T12:44:45.461Z,11.30
2019-01-25T12:47:48.955Z,12.15
2019-01-25T12:51:05.573Z,11.50
2019-01-25T12:54:09.145Z,11.43
2019-01-25T12:57:12.765Z,11.43
2019-01-25T13:00:16.639Z,12.45
2019-01-25T13:03:20.218Z,11.97
2019-01-25T13:06:24.999Z,13.08
2019-01-25T13:09:28.599Z,11.18
2019-01-25T13:12:32.120Z,11.83
2019-01-25T13:15:35.606Z,10.95
2019-01-25T13:18:41.156Z,11.38
2019-01-25T13:21:45.686Z,11.25
2019-01-25T13:24:49.184Z,11.30
2019-01-25T13:27:54.745Z,11.18
2019-01-25T13:30:58.241Z,10.98
2019-01-25T13:34:02.860Z,12.18
2019-01-25T13:37:06.486Z,12.75
2019-01-25T13:40:14.980Z,10.60
2019-01-25T13:43:18.601Z,11.38
2019-01-25T13:46:22.087Z,11.10
2019-01-25T13:49:25.613Z,11.05
2019-01-25T13:52:29.097Z,10.50
2019-01-25T13:55:32.721Z,12.07
2019-01-25T13:58:36.284Z,11.25
2019-01-25T14:01:41.190Z,11.65
2019-01-25T14:04:44.725Z,10.75
2019-01-25T14:07:48.227Z,10.65
2019-01-25T14:10:51.758Z,11.00
2019-01-25T14:13:55.230Z,10.65
2019-01-25T14:16:59.872Z,11.15
2019-01-25T14:20:04.724Z,11.45
2019-01-25T14:23:11.296Z,10.38
2019-01-25T14:26:14.842Z,10.50
2019-01-25T14:29:18.464Z,10.48
2019-01-25T14:32:23.013Z,11.43
2019-01-25T14:35:26.539Z,11.68
2019-01-25T14:38:30.109Z,11.08
2019-01-25T14:41:33.732Z,12.63
2019-01-25T14:44:37.266Z,11.08
2019-01-25T14:47:40.915Z,10.93
2019-01-25T14:50:44.455Z,10.48
2019-01-25T14:53:50.935Z,11.00
2019-01-25T14:56:53.272Z,10.85
2019-01-25T14:59:56.909Z,11.33
2019-01-25T15:03:00.479Z,11.85
2019-01-25T15:06:04.083Z,10.20
2019-01-25T15:09:09.532Z,11.57
2019-01-25T15:12:13.129Z,11.38
2019-01-25T15:15:16.805Z,10.98
2019-01-25T15:18:20.453Z,11.40
2019-01-25T15:21:23.939Z,10.08
2019-01-25T15:24:28.443Z,10.60
2019-01-25T15:27:31.957Z,11.95
2019-01-25T15:30:36.583Z,11.35
2019-01-25T15:33:40.179Z,11.40
2019-01-25T15:36:43.747Z,10.78
2019-01-25T15:39:47.283Z,11.53
2019-01-25T15:42:50.736Z,10.75
2019-01-25T15:45:55.222Z,11.57
2019-01-25T15:48:58.724Z,10.95
2019-01-25T15:52:02.228Z,11.57
2019-01-25T15:55:06.223Z,10.85
2019-01-25T15:58:09.850Z,11.50
2019-01-25T16:01:14.355Z,11.08
2019-01-25T16:04:19.914Z,10.20
2019-01-25T16:07:23.431Z,10.38
2019-01-25T16:10:26.914Z,10.68
2019-01-25T16:13:30.432Z,11.03
2019-01-25T16:16:33.942Z,10.30
2019-01-25T16:19:37.425Z,10.85
2019-01-25T16:22:41.020Z,11.05
2019-01-25T16:25:44.629Z,10.80
2019-01-25T16:28:49.166Z,11.20
2019-01-25T16:31:52.667Z,10.95
2019-01-25T16:34:56.142Z,11.85
2019-01-25T16:37:59.709Z,10.70
2019-01-25T16:41:03.134Z,10.60
2019-01-25T16:44:06.693Z,10.82
2019-01-25T16:47:10.271Z,11.20
2019-01-25T16:50:15.016Z,12.18
2019-01-25T16:53:18.606Z,11.08
2019-01-25T16:56:23.115Z,11.43
2019-01-25T16:59:26.613Z,12.45
2019-01-25T17:02:32.166Z,11.63
2019-01-25T17:05:37.724Z,11.48
2019-01-25T17:08:41.214Z,11.00
2019-01-25T17:11:44.736Z,11.35
2019-01-25T17:14:49.034Z,11.95
2019-01-25T17:17:52.566Z,11.63
2019-01-25T17:20:57.061Z,11.05
2019-01-25T17:24:00.575Z,10.55
2019-01-25T17:27:08.185Z,12.35
2019-01-25T17:30:25.278Z,10.20
2019-01-25T17:33:28.891Z,12.00
2019-01-25T17:36:33.401Z,12.15
2019-01-25T17:39:37.998Z,12.73
2019-01-25T17:42:41.721Z,10.82
2019-01-25T17:45:45.348Z,11.25
2019-01-25T17:48:49.712Z,11.25
2019-01-25T17:51:53.407Z,10.30
2019-01-25T17:54:56.887Z,11.00
2019-01-25T17:58:08.026Z,11.45
2019-01-25T18:01:07.775Z,11.15
2019-01-25T18:04:11.305Z,11.35
2019-01-25T18:07:14.776Z,13.08
2019-01-25T18:10:18.296Z,11.60
2019-01-25T18:13:21.766Z,11.85
2019-01-25T18:16:25.309Z,12.60
2019-01-25T18:19:28.838Z,11.70
2019-01-25T18:22:32.489Z,11.57
2019-01-25T18:25:41.807Z,12.20
2019-01-25T18:29:00.859Z,12.15
2019-01-25T18:32:04.784Z,12.58
2019-01-25T18:35:08.400Z,15.30
2019-01-25T18:38:11.910Z,12.68
2019-01-25T18:41:15.395Z,12.25
2019-01-25T18:44:18.849Z,12.60
2019-01-25T18:47:23.416Z,12.20
2019-01-25T18:50:28.967Z,14.35
2019-01-25T18:53:32.468Z,12.45
2019-01-25T18:56:36.342Z,12.13
2019-01-25T18:59:39.927Z,11.83
2019-01-25T19:02:43.389Z,12.33
2019-01-25T19:05:46.898Z,12.23
2019-01-25T19:08:50.408Z,12.25
2019-01-25T19:11:53.938Z,13.22
2019-01-25T19:15:04.129Z,12.20
2019-01-25T19:18:02.744Z,12.90
2019-01-25T19:21:06.244Z,11.97
2019-01-25T19:24:10.831Z,12.37
2019-01-25T19:27:14.473Z,11.22
2019-01-25T19:30:26.537Z,12.13
2019-01-25T19:33:30.128Z,12.53
2019-01-25T19:36:35.608Z,10.65
2019-01-25T19:39:39.240Z,11.25
2019-01-25T19:42:42.843Z,12.75
2019-01-25T19:45:46.348Z,11.10
2019-01-25T19:48:49.836Z,11.85
2019-01-25T19:51:54.425Z,10.70
2019-01-25T19:54:58.061Z,11.73
2019-01-25T19:58:01.655Z,11.75
2019-01-25T20:01:06.346Z,11.38
2019-01-25T20:04:09.998Z,12.90
2019-01-25T20:07:13.657Z,10.15
2019-01-25T20:10:17.578Z,10.38
2019-01-25T20:13:21.199Z,10.43
2019-01-25T20:16:24.807Z,10.63
2019-01-25T20:19:28.322Z,10.53
2019-01-25T20:22:31.926Z,10.80
2019-01-25T20:25:36.546Z,10.60
2019-01-25T20:28:40.062Z,10.15
2019-01-25T20:31:43.582Z,11.38
2019-01-25T20:34:47.078Z,11.20
2019-01-25T20:37:50.548Z,10.53
2019-01-25T20:40:54.062Z,10.50
2019-01-25T20:43:57.563Z,10.25
2019-01-25T20:47:01.058Z,10.08
2019-01-25T20:50:05.481Z,10.30
2019-01-25T20:53:10.392Z,9.95
2019-01-25T20:56:14.019Z,9.83
2019-01-25T20:59:17.540Z,9.30
2019-01-25T21:02:24.090Z,9.63
2019-01-25T21:05:27.709Z,8.63
2019-01-25T21:08:32.320Z,9.90
2019-01-25T21:11:35.824Z,8.93
2019-01-25T21:14:39.333Z,9.28
2019-01-25T21:17:42.821Z,9.00
2019-01-25T21:20:47.352Z,8.75
2019-01-25T21:23:51.872Z,9.13
2019-01-25T21:26:57.422Z,9.63
2019-01-25T21:30:00.951Z,9.15
2019-01-25T21:33:06.503Z,9.45
2019-01-25T21:36:12.145Z,9.03
2019-01-25T21:39:15.718Z,9.68
2019-01-25T21:42:20.264Z,8.68
2019-01-25T21:45:25.813Z,9.05
2019-01-25T21:48:30.336Z,8.63
2019-01-25T21:51:39.116Z,8.50
2019-01-25T21:54:43.684Z,8.63
2019-01-25T21:57:47.183Z,8.48
2019-01-25T22:00:50.692Z,8.83
2019-01-25T22:03:54.193Z,8.40
2019-01-25T22:06:57.702Z,8.48
2019-01-25T22:10:01.191Z,8.60
2019-01-25T22:13:04.888Z,8.83
2019-01-25T22:16:08.399Z,7.90
2019-01-25T22:19:11.884Z,7.83
2019-01-25T22:22:15.397Z,8.75
2019-01-25T22:25:19.923Z,7.83
2019-01-25T22:28:24.439Z,8.20
2019-01-25T22:31:30.005Z,8.25
2019-01-25T22:34:33.487Z,7.40
2019-01-25T22:37:38.941Z,7.95
2019-01-25T22:40:43.570Z,8.25
2019-01-25T22:43:47.075Z,7.80
2019-01-25T22:46:50.544Z,8.20
2019-01-25T22:49:54.087Z,7.67
2019-01-25T22:52:59.611Z,7.12
2019-01-25T22:56:03.135Z,7.35
2019-01-25T22:59:06.635Z,7.30
2019-01-25T23:02:10.194Z,7.55
2019-01-25T23:05:28.384Z,7.50
2019-01-25T23:08:31.871Z,7.37
2019-01-25T23:11:35.369Z,7.33
2019-01-25T23:14:38.875Z,7.30
2019-01-25T23:17:42.406Z,6.90
2019-01-25T23:20:45.885Z,7.05
2019-01-25T23:23:49.369Z,7.10
2019-01-25T23:26:54.916Z,6.90
2019-01-25T23:30:00.492Z,6.85
2019-01-25T23:33:04.095Z,7.17
2019-01-25T23:36:07.583Z,7.28
2019-01-25T23:39:11.657Z,7.25
2019-01-25T23:42:15.306Z,6.53
2019-01-25T23:45:18.798Z,6.53
2019-01-25T23:48:23.319Z,6.90
2019-01-25T23:51:27.845Z,7.03
2019-01-25T23:54:31.347Z,6.75
2019-01-25T23:57:34.870Z,7.28
